createdAt,value
2022-12-26T00:00:25.253Z,4.5
2022-12-26T00:03:27.191Z,5.1
2022-12-26T00:06:29.156Z,6
2022-12-26T00:09:31.049Z,4.6
2022-12-26T00:12:33.014Z,5.1
2022-12-26T00:15:34.974Z,5.5
2022-12-26T00:18:36.929Z,4.1
2022-12-26T00:21:38.930Z,5.8
2022-12-26T00:24:40.887Z,6
2022-12-26T00:27:42.897Z,5.5
2022-12-26T00:30:44.779Z,5.9
2022-12-26T00:33:46.783Z,4.3
2022-12-26T00:36:48.756Z,4.8
2022-12-26T00:39:50.684Z,4
2022-12-26T00:42:52.658Z,5.4
2022-12-26T00:45:54.630Z,4.4
2022-12-26T00:48:56.573Z,4.9
2022-12-26T00:51:58.541Z,4.9
2022-12-26T00:55:00.493Z,5.9
2022-12-26T00:58:02.435Z,4.4
2022-12-26T01:01:04.483Z,4.4
2022-12-26T01:04:06.363Z,5.7
2022-12-26T01:07:08.338Z,3.8
2022-12-26T01:10:10.306Z,4.7
2022-12-26T01:13:12.266Z,4.6
2022-12-26T01:16:14.237Z,3.6
2022-12-26T01:19:16.205Z,5.3
2022-12-26T01:22:18.125Z,4.5
2022-12-26T01:25:20.090Z,5
2022-12-26T01:28:22.060Z,4.4
2022-12-26T01:31:24.124Z,5.8
2022-12-26T01:34:26.015Z,7.6
2022-12-26T01:37:27.985Z,4.6
2022-12-26T01:40:29.980Z,3.5
2022-12-26T01:43:31.970Z,4.5
2022-12-26T01:46:33.925Z,4.5
2022-12-26T01:49:35.886Z,4
2022-12-26T01:52:37.838Z,6.2
2022-12-26T01:55:39.815Z,4.8
2022-12-26T01:58:41.777Z,4.4
2022-12-26T02:01:43.844Z,5.8
2022-12-26T02:04:45.671Z,5.5
2022-12-26T02:07:47.617Z,3.9
2022-12-26T02:10:49.587Z,4.4
2022-12-26T02:13:51.545Z,5.6
2022-12-26T02:16:53.535Z,3.3
2022-12-26T02:19:55.489Z,5.8
2022-12-26T02:22:57.417Z,4.3
2022-12-26T02:25:59.411Z,4.7
2022-12-26T02:29:01.361Z,4.7
2022-12-26T02:32:03.382Z,3.8
2022-12-26T02:35:05.385Z,4.7
2022-12-26T02:38:07.236Z,3.7
2022-12-26T02:41:09.252Z,6.1
2022-12-26T02:44:11.217Z,5.1
2022-12-26T02:47:13.144Z,5.2
2022-12-26T02:50:15.128Z,3.8
2022-12-26T02:53:17.048Z,4.8
2022-12-26T02:56:19.063Z,5.3
2022-12-26T02:59:21.005Z,4.5
2022-12-26T03:02:23.123Z,3.5
2022-12-26T03:05:24.993Z,3
2022-12-26T03:08:26.937Z,3.6
2022-12-26T03:11:28.892Z,4.8
2022-12-26T03:14:30.841Z,3.6
2022-12-26T03:17:32.796Z,3.5
2022-12-26T03:20:34.772Z,3.4
2022-12-26T03:23:36.743Z,4.7
2022-12-26T03:26:38.691Z,4.1
2022-12-26T03:29:40.708Z,3.8
2022-12-26T03:32:42.657Z,3.7
2022-12-26T03:35:44.601Z,3.7
2022-12-26T03:38:46.559Z,4.6
2022-12-26T03:41:48.498Z,2.5
2022-12-26T03:44:53.842Z,3.7
2022-12-26T03:47:52.414Z,4.7
2022-12-26T03:50:54.381Z,3.5
2022-12-26T03:53:56.364Z,3.6
2022-12-26T03:56:58.316Z,4.2
2022-12-26T04:00:00.408Z,5.2
2022-12-26T04:03:02.249Z,3.9
2022-12-26T04:06:04.212Z,3.6
2022-12-26T04:09:06.188Z,4.3
2022-12-26T04:12:08.137Z,3.3
2022-12-26T04:15:10.132Z,3.3
2022-12-26T04:18:12.080Z,5
2022-12-26T04:21:14.066Z,4
2022-12-26T04:24:16.055Z,3.9
2022-12-26T04:27:17.990Z,5.1
2022-12-26T04:30:19.971Z,4.9
2022-12-26T04:33:22.053Z,5.5
2022-12-26T04:36:23.886Z,4
2022-12-26T04:39:25.837Z,4.7
2022-12-26T04:42:27.817Z,4.9
2022-12-26T04:45:29.757Z,4.4
2022-12-26T04:48:31.708Z,3.3
2022-12-26T04:51:33.674Z,4.7
2022-12-26T04:54:35.674Z,3.5
2022-12-26T04:57:37.620Z,3.8
2022-12-26T05:00:39.599Z,6.2
2022-12-26T05:03:41.592Z,4.5
2022-12-26T05:06:43.519Z,4.5
2022-12-26T05:09:45.492Z,3.7
2022-12-26T05:12:47.460Z,5.8
2022-12-26T05:15:49.409Z,4.3
2022-12-26T05:18:51.334Z,5.1
2022-12-26T05:21:53.278Z,3.8
2022-12-26T05:24:55.250Z,3.8
2022-12-26T05:27:57.208Z,4.2
2022-12-26T05:30:59.211Z,5.5
2022-12-26T05:34:01.187Z,4
2022-12-26T05:37:03.120Z,3.5
2022-12-26T05:40:05.080Z,3.7
2022-12-26T05:43:07.037Z,4.5
2022-12-26T05:46:09.085Z,3.3
2022-12-26T05:49:11.058Z,3
2022-12-26T05:52:12.931Z,4.9
2022-12-26T05:55:14.935Z,3
2022-12-26T05:58:16.865Z,4.2
2022-12-26T06:01:18.937Z,3.5
2022-12-26T06:04:20.823Z,3
2022-12-26T06:07:22.791Z,4.3
2022-12-26T06:10:24.745Z,4.2
2022-12-26T06:13:26.677Z,4
2022-12-26T06:16:28.689Z,3.1
2022-12-26T06:19:30.618Z,4.7
2022-12-26T06:22:33.472Z,3.9
2022-12-26T06:25:34.528Z,5.7
2022-12-26T06:28:36.504Z,3.7
2022-12-26T06:31:38.504Z,4.9
2022-12-26T06:34:40.419Z,3.7
2022-12-26T06:37:42.408Z,2.4
2022-12-26T06:40:44.362Z,5.7
2022-12-26T06:43:46.318Z,3.7
2022-12-26T06:46:48.358Z,4.3
2022-12-26T06:49:50.239Z,3.6
2022-12-26T06:52:52.364Z,3.7
2022-12-26T06:55:54.193Z,3.2
2022-12-26T06:58:56.161Z,3.8
2022-12-26T07:01:58.207Z,3.5
2022-12-26T07:05:00.142Z,3.2
2022-12-26T07:08:02.049Z,4.7
2022-12-26T07:11:04.032Z,3.2
2022-12-26T07:14:06.033Z,4.3
2022-12-26T07:17:07.973Z,5.3
2022-12-26T07:20:09.873Z,5.3
2022-12-26T07:23:11.820Z,3.3
2022-12-26T07:26:13.800Z,6.3
2022-12-26T07:29:15.789Z,4.5
2022-12-26T07:32:17.744Z,6.8
2022-12-26T07:35:19.700Z,5.5
2022-12-26T07:38:21.639Z,4.4
2022-12-26T07:41:23.605Z,6.7
2022-12-26T07:44:25.620Z,3.8
2022-12-26T07:47:27.495Z,4.3
2022-12-26T07:50:29.441Z,6.9
2022-12-26T07:53:31.395Z,4.4
2022-12-26T07:56:33.399Z,5.8
2022-12-26T07:59:35.332Z,5.6
2022-12-26T08:02:37.436Z,5.9
2022-12-26T08:05:39.264Z,4.9
2022-12-26T08:08:45.512Z,8.2
2022-12-26T08:11:43.226Z,6.9
2022-12-26T08:14:45.171Z,4.5
2022-12-26T08:17:47.128Z,4.5
2022-12-26T08:20:49.087Z,5.6
2022-12-26T08:23:51.045Z,4.7
2022-12-26T08:26:53.003Z,8.3
2022-12-26T08:29:54.962Z,7
2022-12-26T08:32:56.891Z,5.2
2022-12-26T08:35:58.857Z,7.6
2022-12-26T08:39:00.798Z,4.2
2022-12-26T08:42:02.767Z,4.2
2022-12-26T08:45:04.840Z,4.2
2022-12-26T08:48:06.684Z,5.8
2022-12-26T08:51:08.659Z,5.3
2022-12-26T08:54:10.627Z,6.2
2022-12-26T08:57:12.581Z,5.7
2022-12-26T09:00:14.595Z,6.7
2022-12-26T09:03:16.607Z,7.8
2022-12-26T09:06:18.504Z,4.5
2022-12-26T09:09:20.461Z,4.2
2022-12-26T09:12:22.480Z,6.4
2022-12-26T09:15:24.436Z,5.3
2022-12-26T09:18:26.424Z,4.4
2022-12-26T09:21:28.368Z,5.1
2022-12-26T09:24:30.290Z,7.5
2022-12-26T09:27:32.250Z,5.2
2022-12-26T09:30:34.299Z,4.7
2022-12-26T09:33:36.254Z,4.3
2022-12-26T09:36:38.282Z,5.8
2022-12-26T09:39:40.117Z,6.7
2022-12-26T09:42:42.178Z,5.4
2022-12-26T09:45:44.219Z,5
2022-12-26T09:48:46.109Z,8
2022-12-26T09:51:48.050Z,4.7
2022-12-26T09:54:50.017Z,5.6
2022-12-26T09:57:51.968Z,5.1
2022-12-26T10:00:53.924Z,4.7
2022-12-26T10:03:55.886Z,4
2022-12-26T10:06:57.841Z,5.1
2022-12-26T10:09:59.793Z,3.6
2022-12-26T10:13:01.759Z,4.1
2022-12-26T10:16:03.751Z,3.3
2022-12-26T10:19:05.683Z,4.8
2022-12-26T10:22:07.667Z,4.7
2022-12-26T10:25:09.608Z,3.5
2022-12-26T10:28:11.560Z,4.7
2022-12-26T10:31:13.601Z,5.4
2022-12-26T10:34:15.525Z,2.6
2022-12-26T10:37:17.494Z,6.3
2022-12-26T10:40:19.508Z,3.8
2022-12-26T10:43:21.374Z,3.6
2022-12-26T10:46:23.396Z,2.7
2022-12-26T10:49:25.286Z,2.9
2022-12-26T10:52:27.243Z,2.8
2022-12-26T10:55:31.382Z,2.7
2022-12-26T10:58:31.160Z,1.9
2022-12-26T11:01:33.240Z,3.5
2022-12-26T11:05:10.284Z,3.3
2022-12-26T11:07:37.036Z,2.2
2022-12-26T11:10:39.000Z,4.1
2022-12-26T11:13:40.969Z,4.8
2022-12-26T11:16:42.915Z,2.1
2022-12-26T11:19:44.914Z,3.2
2022-12-26T11:22:46.880Z,3.8
2022-12-26T11:25:48.841Z,2.9
2022-12-26T11:28:50.787Z,4
2022-12-26T11:31:55.907Z,2.6
2022-12-26T11:34:57.859Z,2.9
2022-12-26T11:37:59.806Z,2.1
2022-12-26T11:41:01.764Z,2.1
2022-12-26T11:44:03.731Z,2.6
2022-12-26T11:47:05.694Z,3.6
2022-12-26T11:50:07.672Z,5
2022-12-26T11:53:09.626Z,1.9
2022-12-26T11:56:11.577Z,2.4
2022-12-26T11:59:13.579Z,2
2022-12-26T12:02:15.544Z,3.9
2022-12-26T12:05:17.498Z,3.8
2022-12-26T12:08:19.475Z,2.2
2022-12-26T12:11:21.427Z,2.3
2022-12-26T12:14:23.348Z,3.1
2022-12-26T12:17:25.321Z,2.3
2022-12-26T12:20:27.283Z,2.4
2022-12-26T12:23:29.286Z,1.6
2022-12-26T12:26:31.239Z,3.9
2022-12-26T12:29:33.215Z,3
2022-12-26T12:32:35.169Z,2.6
2022-12-26T12:35:37.126Z,4.4
2022-12-26T12:38:39.073Z,2.7
2022-12-26T12:41:41.043Z,4.8
2022-12-26T12:44:43.044Z,2.7
2022-12-26T12:47:44.965Z,2.1
2022-12-26T12:50:49.516Z,4.3
2022-12-26T12:53:48.925Z,2.7
2022-12-26T12:56:50.844Z,2.6
2022-12-26T12:59:52.815Z,3.8
2022-12-26T13:02:54.886Z,3.6
2022-12-26T13:05:56.743Z,3.2
2022-12-26T13:08:58.691Z,2
2022-12-26T13:12:00.646Z,2.4
2022-12-26T13:15:02.599Z,2.7
2022-12-26T13:18:04.568Z,3.9
2022-12-26T13:21:06.515Z,2.7
2022-12-26T13:24:08.494Z,2.6
2022-12-26T13:27:10.431Z,2.6
2022-12-26T13:30:12.527Z,2.3
2022-12-26T13:33:14.524Z,2.9
2022-12-26T13:36:16.354Z,2.7
2022-12-26T13:39:18.316Z,1.8
2022-12-26T13:42:20.270Z,2.1
2022-12-26T13:45:22.194Z,2.5
2022-12-26T13:48:24.168Z,1.7
2022-12-26T13:51:26.143Z,2.3
2022-12-26T13:54:28.131Z,2.6
2022-12-26T13:57:30.069Z,1.9
2022-12-26T14:00:32.025Z,1.9
2022-12-26T14:03:34.119Z,2.2
2022-12-26T14:06:35.915Z,2.1
2022-12-26T14:09:37.900Z,4.2
2022-12-26T14:12:39.810Z,3.5
2022-12-26T14:15:41.776Z,2.6
2022-12-26T14:18:43.731Z,3.7
2022-12-26T14:21:45.704Z,1.4
2022-12-26T14:24:47.705Z,2
2022-12-26T14:27:49.610Z,3.2
2022-12-26T14:30:51.649Z,2.5
2022-12-26T14:33:53.553Z,0.8
2022-12-26T14:36:55.499Z,0.7
2022-12-26T14:39:57.476Z,0.6
2022-12-26T14:42:59.448Z,1.1
2022-12-26T14:46:01.478Z,0.9
2022-12-26T14:49:03.370Z,1.2
2022-12-26T14:52:05.326Z,3
2022-12-26T14:55:07.289Z,1.5
2022-12-26T14:58:09.247Z,2.3
2022-12-26T15:01:11.278Z,3.4
2022-12-26T15:04:13.239Z,1.6
2022-12-26T15:07:20.283Z,2.5
2022-12-26T15:10:17.147Z,1.7
2022-12-26T15:13:19.117Z,2.8
2022-12-26T15:16:21.268Z,1.5
2022-12-26T15:19:23.075Z,3.3
2022-12-26T15:22:25.041Z,2.2
2022-12-26T15:25:26.991Z,1.9
2022-12-26T15:28:28.910Z,2.3
2022-12-26T15:31:30.938Z,1.8
2022-12-26T15:34:32.861Z,2.4
2022-12-26T15:37:34.811Z,2.4
2022-12-26T15:40:36.769Z,3.5
2022-12-26T15:43:38.757Z,1.9
2022-12-26T15:46:40.754Z,1.7
2022-12-26T15:49:42.666Z,0.8
2022-12-26T15:52:44.649Z,2.4
2022-12-26T15:55:46.619Z,3.5
2022-12-26T15:58:48.565Z,2
2022-12-26T16:01:50.603Z,2.7
2022-12-26T16:04:52.627Z,1.8
2022-12-26T16:07:54.462Z,1
2022-12-26T16:10:56.428Z,1.9
2022-12-26T16:13:58.399Z,2
2022-12-26T16:17:00.366Z,1.1
2022-12-26T16:20:02.319Z,1.4
2022-12-26T16:23:04.274Z,2.1
2022-12-26T16:26:06.252Z,1.9
2022-12-26T16:29:08.221Z,2.1
2022-12-26T16:32:10.156Z,2.1
2022-12-26T16:35:12.120Z,1.8
2022-12-26T16:38:14.071Z,2
2022-12-26T16:41:16.044Z,2
2022-12-26T16:44:18.064Z,2.1
2022-12-26T16:47:20.098Z,1.6
2022-12-26T16:50:21.971Z,1.1
2022-12-26T16:53:23.893Z,1.9
2022-12-26T16:56:25.853Z,4
2022-12-26T16:59:27.848Z,1.8
2022-12-26T17:02:29.952Z,2.2
2022-12-26T17:05:31.736Z,2.6
2022-12-26T17:08:33.691Z,1.9
2022-12-26T17:11:35.652Z,2.1
2022-12-26T17:14:37.626Z,3.5
2022-12-26T17:17:39.566Z,0.9
2022-12-26T17:20:41.571Z,2.2
2022-12-26T17:23:43.538Z,2
2022-12-26T17:26:45.476Z,2.2
2022-12-26T17:29:47.477Z,3.5
2022-12-26T17:32:49.395Z,2.8
2022-12-26T17:38:53.338Z,2.5
2022-12-26T17:41:55.272Z,1.3
2022-12-26T17:44:57.250Z,2.1
2022-12-26T17:47:59.226Z,2.2
2022-12-26T17:51:01.174Z,2.8
2022-12-26T17:54:03.114Z,2.4
2022-12-26T17:57:05.070Z,3.1
2022-12-26T18:00:07.015Z,2.5
2022-12-26T18:03:09.007Z,2.3
2022-12-26T18:06:10.935Z,1.7
2022-12-26T18:09:12.885Z,1.5
2022-12-26T18:12:14.843Z,3.7
2022-12-26T18:15:16.806Z,2.6
2022-12-26T18:18:18.760Z,1.5
2022-12-26T18:21:20.779Z,3.2
2022-12-26T18:24:22.872Z,2.6
2022-12-26T18:27:24.700Z,2
2022-12-26T18:30:26.647Z,1.7
2022-12-26T18:33:28.605Z,2.6
2022-12-26T18:36:30.536Z,2.9
2022-12-26T18:39:32.493Z,1.4
2022-12-26T18:42:34.467Z,1.9
2022-12-26T18:45:36.442Z,1.2
2022-12-26T18:48:38.367Z,2.6
2022-12-26T18:51:40.468Z,2.1
2022-12-26T18:54:42.318Z,3.7
2022-12-26T18:57:44.279Z,2.8
2022-12-26T19:00:46.243Z,2.7
2022-12-26T19:03:48.227Z,1.5
2022-12-26T19:06:50.130Z,3.1
2022-12-26T19:09:52.108Z,1.7
2022-12-26T19:12:54.462Z,3.3
2022-12-26T19:15:56.073Z,3.2
2022-12-26T19:18:58.007Z,7.1
2022-12-26T19:21:59.954Z,7.8
2022-12-26T19:25:01.929Z,8
2022-12-26T19:28:03.854Z,6.6
2022-12-26T19:31:05.846Z,9
2022-12-26T19:34:07.776Z,5.5
2022-12-26T19:37:09.733Z,4.5
2022-12-26T19:40:11.710Z,3.7
2022-12-26T19:43:13.662Z,6.1
2022-12-26T19:46:15.733Z,6.5
2022-12-26T19:49:17.589Z,5.4
2022-12-26T19:52:19.544Z,4
2022-12-26T19:55:21.510Z,2.8
2022-12-26T19:58:23.509Z,4.3
2022-12-26T20:01:25.532Z,2.5
2022-12-26T20:04:27.402Z,3.2
2022-12-26T20:07:29.337Z,3.9
2022-12-26T20:10:31.296Z,2.4
2022-12-26T20:13:33.286Z,3.7
2022-12-26T20:17:04.224Z,4.6
2022-12-26T20:19:37.274Z,3.7
2022-12-26T20:22:39.159Z,3.6
2022-12-26T20:25:41.137Z,3.9
2022-12-26T20:28:43.087Z,11.1
2022-12-26T20:31:45.057Z,8.5
2022-12-26T20:34:47.004Z,5.3
2022-12-26T20:37:48.996Z,5.6
2022-12-26T20:40:50.962Z,3.6
2022-12-26T20:43:53.083Z,5.8
2022-12-26T20:46:54.922Z,5.3
2022-12-26T20:49:56.929Z,4.7
2022-12-26T20:52:58.879Z,3
2022-12-26T20:56:00.826Z,3.2
2022-12-26T20:59:02.792Z,2.2
2022-12-26T21:02:04.965Z,1.9
2022-12-26T21:05:07.090Z,3.8
2022-12-26T21:08:08.698Z,2.7
2022-12-26T21:11:10.715Z,1.9
2022-12-26T21:14:12.633Z,3.5
2022-12-26T21:17:14.646Z,2.7
2022-12-26T21:20:16.588Z,2.5
2022-12-26T21:23:18.563Z,3.2
2022-12-26T21:26:20.501Z,2.7
2022-12-26T21:29:22.516Z,3.3
2022-12-26T21:32:24.443Z,1.7
2022-12-26T21:35:26.401Z,1.9
2022-12-26T21:38:28.359Z,3.6
2022-12-26T21:41:30.306Z,5.2
2022-12-26T21:44:32.298Z,4.4
2022-12-26T21:47:34.289Z,4.5
2022-12-26T21:50:36.197Z,4.4
2022-12-26T21:53:38.162Z,3.3
2022-12-26T21:56:40.145Z,4.4
2022-12-26T21:59:42.086Z,4.1
2022-12-26T22:02:44.365Z,3.4
2022-12-26T22:05:46.030Z,3.6
2022-12-26T22:08:47.979Z,1.9
2022-12-26T22:11:49.939Z,3.8
2022-12-26T22:14:51.911Z,5.8
2022-12-26T22:17:53.907Z,2.9
2022-12-26T22:20:55.860Z,8.4
2022-12-26T22:23:57.815Z,28.2
2022-12-26T22:26:59.784Z,14.9
2022-12-26T22:30:01.704Z,9.4
2022-12-26T22:33:03.700Z,15.9
2022-12-26T22:36:05.636Z,7.7
2022-12-26T22:39:07.586Z,3.5
2022-12-26T22:42:09.670Z,6.2
2022-12-26T22:45:11.500Z,4.7
2022-12-26T22:48:13.465Z,3.1
2022-12-26T22:51:15.509Z,5.4
2022-12-26T22:54:17.406Z,6.6
2022-12-26T22:57:19.368Z,4.2
2022-12-26T23:00:21.360Z,3.4
2022-12-26T23:03:23.342Z,2.9
2022-12-26T23:06:25.280Z,3.6
2022-12-26T23:09:27.265Z,4.2
2022-12-26T23:12:29.179Z,3.2
2022-12-26T23:15:31.132Z,3.3
2022-12-26T23:18:33.109Z,2.4
2022-12-26T23:21:35.168Z,4.5
2022-12-26T23:24:37.059Z,7.4
2022-12-26T23:27:38.974Z,5.6
2022-12-26T23:30:40.974Z,5.9
2022-12-26T23:33:42.922Z,7.7
2022-12-26T23:36:44.851Z,5.7
2022-12-26T23:39:46.808Z,4
2022-12-26T23:42:48.781Z,6.2
2022-12-26T23:45:50.724Z,5.7
2022-12-26T23:48:52.735Z,3.8
2022-12-26T23:51:54.715Z,2.7
2022-12-26T23:54:56.681Z,4.1
2022-12-26T23:57:58.629Z,3.3
